sensor_id;sensor_type;location;lat;lon;timestamp;pressure;altitude;pressure_sealevel;temperature;humidity
64683;BME280;51107;47.652;19.016;2023-12-20T00:01:59;100101.97;;;-2.49;100.00
64683;BME280;51107;47.652;19.016;2023-12-20T00:04:28;100085.72;;;-2.46;100.00
64683;BME280;51107;47.652;19.016;2023-12-20T00:06:56;100083.25;;;-2.49;100.00
64683;BME280;51107;47.652;19.016;2023-12-20T00:09:24;100085.06;;;-2.51;100.00
64683;BME280;51107;47.652;19.016;2023-12-20T00:11:52;100080.16;;;-2.56;100.00
64683;BME280;51107;47.652;19.016;2023-12-20T00:14:20;100076.81;;;-2.58;100.00
64683;BME280;51107;47.652;19.016;2023-12-20T00:16:48;100071.63;;;-2.57;100.00
64683;BME280;51107;47.652;19.016;2023-12-20T00:19:17;100060.56;;;-2.56;100.00
64683;BME280;51107;47.652;19.016;2023-12-20T00:21:45;100063.03;;;-2.54;100.00
64683;BME280;51107;47.652;19.016;2023-12-20T00:24:13;100043.50;;;-2.55;100.00
64683;BME280;51107;47.652;19.016;2023-12-20T00:26:41;100052.47;;;-2.45;100.00
64683;BME280;51107;47.652;19.016;2023-12-20T00:29:10;100038.88;;;-2.45;100.00
64683;BME280;51107;47.652;19.016;2023-12-20T00:31:38;100033.78;;;-2.45;100.00
64683;BME280;51107;47.652;19.016;2023-12-20T00:34:06;100033.69;;;-2.64;100.00
64683;BME280;51107;47.652;19.016;2023-12-20T00:36:34;100022.03;;;-2.49;100.00
64683;BME280;51107;47.652;19.016;2023-12-20T00:39:03;100023.00;;;-2.52;100.00
64683;BME280;51107;47.652;19.016;2023-12-20T00:41:31;100015.22;;;-2.49;100.00
64683;BME280;51107;47.652;19.016;2023-12-20T00:43:59;100010.81;;;-2.66;100.00
64683;BME280;51107;47.652;19.016;2023-12-20T00:46:27;100001.81;;;-2.54;100.00
64683;BME280;51107;47.652;19.016;2023-12-20T00:48:56;100007.56;;;-2.49;100.00
64683;BME280;51107;47.652;19.016;2023-12-20T00:51:24;100005.84;;;-2.48;100.00
64683;BME280;51107;47.652;19.016;2023-12-20T00:53:52;99998.12;;;-2.47;100.00
64683;BME280;51107;47.652;19.016;2023-12-20T00:56:23;100008.97;;;-2.42;100.00
64683;BME280;51107;47.652;19.016;2023-12-20T00:58:51;99997.53;;;-2.53;100.00
64683;BME280;51107;47.652;19.016;2023-12-20T01:01:19;100000.22;;;-2.57;100.00
64683;BME280;51107;47.652;19.016;2023-12-20T01:03:48;100001.16;;;-2.59;100.00
64683;BME280;51107;47.652;19.016;2023-12-20T01:06:19;99988.94;;;-2.51;100.00
64683;BME280;51107;47.652;19.016;2023-12-20T01:08:47;99988.94;;;-2.51;100.00
64683;BME280;51107;47.652;19.016;2023-12-20T01:11:18;99993.34;;;-2.54;100.00
64683;BME280;51107;47.652;19.016;2023-12-20T01:13:46;99985.50;;;-2.50;100.00
64683;BME280;51107;47.652;19.016;2023-12-20T01:16:14;99979.44;;;-2.47;100.00
64683;BME280;51107;47.652;19.016;2023-12-20T01:18:42;99982.75;;;-2.45;100.00
64683;BME280;51107;47.652;19.016;2023-12-20T01:21:10;99977.34;;;-2.37;100.00
64683;BME280;51107;47.652;19.016;2023-12-20T01:23:38;99981.62;;;-2.38;100.00
64683;BME280;51107;47.652;19.016;2023-12-20T01:26:07;99979.09;;;-2.38;100.00
64683;BME280;51107;47.652;19.016;2023-12-20T01:28:34;99974.66;;;-2.34;100.00
64683;BME280;51107;47.652;19.016;2023-12-20T01:31:03;99971.34;;;-2.36;100.00
64683;BME280;51107;47.652;19.016;2023-12-20T01:33:32;99966.38;;;-2.40;100.00
64683;BME280;51107;47.652;19.016;2023-12-20T01:36:00;99960.28;;;-2.35;100.00
64683;BME280;51107;47.652;19.016;2023-12-20T01:38:28;99951.53;;;-2.30;100.00
64683;BME280;51107;47.652;19.016;2023-12-20T01:40:56;99947.00;;;-2.23;100.00
64683;BME280;51107;47.652;19.016;2023-12-20T01:43:24;99948.69;;;-2.24;100.00
64683;BME280;51107;47.652;19.016;2023-12-20T01:45:57;99940.28;;;-2.26;100.00
64683;BME280;51107;47.652;19.016;2023-12-20T01:48:25;99923.38;;;-2.28;100.00
64683;BME280;51107;47.652;19.016;2023-12-20T01:50:55;99938.63;;;-2.27;100.00
64683;BME280;51107;47.652;19.016;2023-12-20T01:53:25;99930.91;;;-2.25;100.00
64683;BME280;51107;47.652;19.016;2023-12-20T01:55:58;99915.81;;;-2.30;100.00
64683;BME280;51107;47.652;19.016;2023-12-20T01:58:27;99904.00;;;-2.32;100.00
64683;BME280;51107;47.652;19.016;2023-12-20T02:00:57;99906.53;;;-2.32;100.00
64683;BME280;51107;47.652;19.016;2023-12-20T02:03:25;99900.16;;;-2.43;100.00
64683;BME280;51107;47.652;19.016;2023-12-20T02:05:54;99889.84;;;-2.40;100.00
64683;BME280;51107;47.652;19.016;2023-12-20T02:08:22;99883.09;;;-2.41;100.00
64683;BME280;51107;47.652;19.016;2023-12-20T02:10:50;99880.19;;;-2.33;100.00
64683;BME280;51107;47.652;19.016;2023-12-20T02:13:19;99883.47;;;-2.50;100.00
64683;BME280;51107;47.652;19.016;2023-12-20T02:15:47;99872.44;;;-2.50;100.00
64683;BME280;51107;47.652;19.016;2023-12-20T02:18:15;99869.47;;;-2.41;100.00
64683;BME280;51107;47.652;19.016;2023-12-20T02:20:45;99857.81;;;-2.67;100.00
64683;BME280;51107;47.652;19.016;2023-12-20T02:23:13;99852.12;;;-2.72;100.00
64683;BME280;51107;47.652;19.016;2023-12-20T02:25:41;99848.84;;;-2.56;100.00
64683;BME280;51107;47.652;19.016;2023-12-20T02:28:09;99848.13;;;-2.59;100.00
64683;BME280;51107;47.652;19.016;2023-12-20T02:30:37;99852.41;;;-2.60;100.00
64683;BME280;51107;47.652;19.016;2023-12-20T02:33:08;99844.09;;;-2.44;100.00
64683;BME280;51107;47.652;19.016;2023-12-20T02:35:38;99847.38;;;-2.61;100.00
64683;BME280;51107;47.652;19.016;2023-12-20T02:38:06;99841.78;;;-2.69;100.00
64683;BME280;51107;47.652;19.016;2023-12-20T02:40:34;99831.56;;;-2.69;100.00
64683;BME280;51107;47.652;19.016;2023-12-20T02:43:03;99832.97;;;-2.62;100.00
64683;BME280;51107;47.652;19.016;2023-12-20T02:45:31;99834.88;;;-2.67;100.00
64683;BME280;51107;47.652;19.016;2023-12-20T02:47:59;99835.72;;;-2.67;100.00
64683;BME280;51107;47.652;19.016;2023-12-20T02:50:27;99822.31;;;-2.51;100.00
64683;BME280;51107;47.652;19.016;2023-12-20T02:52:55;99823.59;;;-2.62;100.00
64683;BME280;51107;47.652;19.016;2023-12-20T02:55:23;99830.12;;;-2.75;100.00
64683;BME280;51107;47.652;19.016;2023-12-20T02:57:51;99830.69;;;-2.68;100.00
64683;BME280;51107;47.652;19.016;2023-12-20T03:00:20;99828.13;;;-2.68;100.00
64683;BME280;51107;47.652;19.016;2023-12-20T03:02:48;99818.56;;;-2.84;100.00
64683;BME280;51107;47.652;19.016;2023-12-20T03:05:16;99823.66;;;-2.84;100.00
64683;BME280;51107;47.652;19.016;2023-12-20T03:07:44;99827.19;;;-2.86;100.00
64683;BME280;51107;47.652;19.016;2023-12-20T03:10:14;99836.53;;;-2.87;100.00
64683;BME280;51107;47.652;19.016;2023-12-20T03:12:51;99827.75;;;-2.80;100.00
64683;BME280;51107;47.652;19.016;2023-12-20T03:15:19;99820.06;;;-2.78;100.00
64683;BME280;51107;47.652;19.016;2023-12-20T03:17:47;99820.00;;;-2.77;100.00
64683;BME280;51107;47.652;19.016;2023-12-20T03:20:16;99820.59;;;-2.71;100.00
64683;BME280;51107;47.652;19.016;2023-12-20T03:22:44;99830.47;;;-2.64;100.00
64683;BME280;51107;47.652;19.016;2023-12-20T03:25:12;99835.00;;;-2.70;100.00
64683;BME280;51107;47.652;19.016;2023-12-20T03:27:41;99826.69;;;-2.74;100.00
64683;BME280;51107;47.652;19.016;2023-12-20T03:30:09;99816.28;;;-2.69;100.00
64683;BME280;51107;47.652;19.016;2023-12-20T03:32:38;99818.00;;;-2.70;100.00
64683;BME280;51107;47.652;19.016;2023-12-20T03:35:07;99817.59;;;-2.61;100.00
64683;BME280;51107;47.652;19.016;2023-12-20T03:37:35;99813.34;;;-2.60;100.00
64683;BME280;51107;47.652;19.016;2023-12-20T03:40:03;99816.63;;;-2.58;100.00
64683;BME280;51107;47.652;19.016;2023-12-20T03:42:32;99813.94;;;-2.55;100.00
64683;BME280;51107;47.652;19.016;2023-12-20T03:45:00;99822.16;;;-2.48;100.00
64683;BME280;51107;47.652;19.016;2023-12-20T03:47:28;99816.25;;;-2.49;100.00
64683;BME280;51107;47.652;19.016;2023-12-20T03:49:56;99820.84;;;-2.57;100.00
64683;BME280;51107;47.652;19.016;2023-12-20T03:52:24;99818.69;;;-2.66;100.00
64683;BME280;51107;47.652;19.016;2023-12-20T03:54:52;99823.56;;;-2.81;100.00
64683;BME280;51107;47.652;19.016;2023-12-20T03:57:21;99827.28;;;-2.69;100.00
64683;BME280;51107;47.652;19.016;2023-12-20T03:59:49;99818.63;;;-2.65;100.00
64683;BME280;51107;47.652;19.016;2023-12-20T04:02:17;99821.16;;;-2.65;100.00
64683;BME280;51107;47.652;19.016;2023-12-20T04:04:46;99818.63;;;-2.65;100.00
64683;BME280;51107;47.652;19.016;2023-12-20T04:07:14;99810.53;;;-2.75;100.00
64683;BME280;51107;47.652;19.016;2023-12-20T04:09:42;99801.44;;;-2.80;100.00
64683;BME280;51107;47.652;19.016;2023-12-20T04:12:11;99805.38;;;-2.73;100.00
64683;BME280;51107;47.652;19.016;2023-12-20T04:14:39;99808.84;;;-2.74;100.00
64683;BME280;51107;47.652;19.016;2023-12-20T04:17:07;99792.00;;;-2.78;100.00
64683;BME280;51107;47.652;19.016;2023-12-20T04:19:35;99802.00;;;-2.74;100.00
64683;BME280;51107;47.652;19.016;2023-12-20T04:22:04;99799.69;;;-2.80;100.00
64683;BME280;51107;47.652;19.016;2023-12-20T04:24:32;99793.56;;;-2.76;100.00
64683;BME280;51107;47.652;19.016;2023-12-20T04:27:01;99781.09;;;-2.82;100.00
64683;BME280;51107;47.652;19.016;2023-12-20T04:29:29;99764.13;;;-2.83;100.00
64683;BME280;51107;47.652;19.016;2023-12-20T04:31:57;99775.72;;;-2.76;100.00
64683;BME280;51107;47.652;19.016;2023-12-20T04:34:26;99771.63;;;-2.78;100.00
64683;BME280;51107;47.652;19.016;2023-12-20T04:36:54;99758.91;;;-2.80;100.00
64683;BME280;51107;47.652;19.016;2023-12-20T04:39:22;99751.31;;;-2.81;100.00
64683;BME280;51107;47.652;19.016;2023-12-20T04:41:51;99758.47;;;-2.90;100.00
64683;BME280;51107;47.652;19.016;2023-12-20T04:44:19;99749.47;;;-2.78;100.00
64683;BME280;51107;47.652;19.016;2023-12-20T04:46:47;99739.41;;;-2.81;100.00
64683;BME280;51107;47.652;19.016;2023-12-20T04:49:15;99736.72;;;-2.78;100.00
64683;BME280;51107;47.652;19.016;2023-12-20T04:51:43;99739.34;;;-2.79;100.00
64683;BME280;51107;47.652;19.016;2023-12-20T04:54:11;99723.03;;;-2.75;100.00
64683;BME280;51107;47.652;19.016;2023-12-20T04:56:42;99730.69;;;-2.75;100.00
64683;BME280;51107;47.652;19.016;2023-12-20T04:59:10;99728.94;;;-2.75;100.00
64683;BME280;51107;47.652;19.016;2023-12-20T05:01:38;99725.00;;;-2.82;100.00
64683;BME280;51107;47.652;19.016;2023-12-20T05:04:06;99711.44;;;-2.82;100.00
64683;BME280;51107;47.652;19.016;2023-12-20T05:06:34;99713.16;;;-2.83;100.00
64683;BME280;51107;47.652;19.016;2023-12-20T05:09:03;99703.34;;;-2.92;100.00
64683;BME280;51107;47.652;19.016;2023-12-20T05:11:31;99705.28;;;-2.97;100.00
64683;BME280;51107;47.652;19.016;2023-12-20T05:13:59;99705.41;;;-3.00;100.00
64683;BME280;51107;47.652;19.016;2023-12-20T05:16:27;99703.06;;;-3.05;100.00
64683;BME280;51107;47.652;19.016;2023-12-20T05:18:55;99703.34;;;-3.11;100.00
64683;BME280;51107;47.652;19.016;2023-12-20T05:21:24;99688.44;;;-3.20;100.00
64683;BME280;51107;47.652;19.016;2023-12-20T05:23:52;99694.47;;;-3.23;100.00
64683;BME280;51107;47.652;19.016;2023-12-20T05:26:21;99699.06;;;-3.31;100.00
64683;BME280;51107;47.652;19.016;2023-12-20T05:28:49;99686.63;;;-3.39;100.00
64683;BME280;51107;47.652;19.016;2023-12-20T05:31:17;99684.66;;;-3.32;100.00
64683;BME280;51107;47.652;19.016;2023-12-20T05:33:46;99684.34;;;-3.45;100.00
64683;BME280;51107;47.652;19.016;2023-12-20T05:36:14;99675.69;;;-3.41;100.00
64683;BME280;51107;47.652;19.016;2023-12-20T05:38:43;99674.09;;;-3.64;100.00
64683;BME280;51107;47.652;19.016;2023-12-20T05:41:12;99675.38;;;-3.54;100.00
64683;BME280;51107;47.652;19.016;2023-12-20T05:43:41;99681.37;;;-3.55;100.00
64683;BME280;51107;47.652;19.016;2023-12-20T05:46:10;99671.88;;;-3.51;100.00
64683;BME280;51107;47.652;19.016;2023-12-20T05:48:40;99657.16;;;-3.65;100.00
64683;BME280;51107;47.652;19.016;2023-12-20T05:51:11;99672.53;;;-3.89;100.00
64683;BME280;51107;47.652;19.016;2023-12-20T05:53:39;99668.25;;;-3.66;100.00
64683;BME280;51107;47.652;19.016;2023-12-20T05:56:07;99674.22;;;-3.67;100.00
64683;BME280;51107;47.652;19.016;2023-12-20T05:58:36;99672.87;;;-3.76;100.00
64683;BME280;51107;47.652;19.016;2023-12-20T06:01:05;99661.72;;;-3.73;100.00
64683;BME280;51107;47.652;19.016;2023-12-20T06:03:34;99665.87;;;-3.71;100.00
64683;BME280;51107;47.652;19.016;2023-12-20T06:06:08;99676.94;;;-3.72;100.00
64683;BME280;51107;47.652;19.016;2023-12-20T06:08:43;99682.88;;;-3.71;100.00
64683;BME280;51107;47.652;19.016;2023-12-20T06:11:12;99681.72;;;-3.64;100.00
64683;BME280;51107;47.652;19.016;2023-12-20T06:13:41;99670.72;;;-3.65;100.00
64683;BME280;51107;47.652;19.016;2023-12-20T06:16:09;99676.94;;;-3.72;100.00
64683;BME280;51107;47.652;19.016;2023-12-20T06:18:38;99683.41;;;-3.63;100.00
64683;BME280;51107;47.652;19.016;2023-12-20T06:21:06;99668.13;;;-3.63;100.00
64683;BME280;51107;47.652;19.016;2023-12-20T06:23:36;99670.34;;;-3.55;100.00
64683;BME280;51107;47.652;19.016;2023-12-20T06:26:04;99673.87;;;-3.37;100.00
64683;BME280;51107;47.652;19.016;2023-12-20T06:28:32;99684.81;;;-3.35;100.00
64683;BME280;51107;47.652;19.016;2023-12-20T06:31:01;99675.75;;;-3.43;100.00
64683;BME280;51107;47.652;19.016;2023-12-20T06:33:29;99682.53;;;-3.42;100.00
64683;BME280;51107;47.652;19.016;2023-12-20T06:35:58;99683.41;;;-3.43;100.00
64683;BME280;51107;47.652;19.016;2023-12-20T06:38:27;99703.19;;;-3.49;100.00
64683;BME280;51107;47.652;19.016;2023-12-20T06:40:55;99704.97;;;-3.51;100.00
64683;BME280;51107;47.652;19.016;2023-12-20T06:43:25;99715.00;;;-3.47;100.00
64683;BME280;51107;47.652;19.016;2023-12-20T06:46:13;99710.53;;;-3.42;100.00
64683;BME280;51107;47.652;19.016;2023-12-20T06:48:42;99715.44;;;-3.37;100.00
64683;BME280;51107;47.652;19.016;2023-12-20T06:51:16;99717.16;;;-3.37;100.00
64683;BME280;51107;47.652;19.016;2023-12-20T06:53:46;99726.28;;;-3.32;100.00
64683;BME280;51107;47.652;19.016;2023-12-20T06:56:13;99725.25;;;-3.28;100.00
64683;BME280;51107;47.652;19.016;2023-12-20T06:58:46;99718.69;;;-3.33;100.00
64683;BME280;51107;47.652;19.016;2023-12-20T07:01:15;99713.97;;;-3.43;100.00
64683;BME280;51107;47.652;19.016;2023-12-20T07:03:44;99713.97;;;-3.43;100.00
64683;BME280;51107;47.652;19.016;2023-12-20T07:06:12;99720.59;;;-3.38;100.00
64683;BME280;51107;47.652;19.016;2023-12-20T07:08:41;99716.91;;;-3.31;100.00
64683;BME280;51107;47.652;19.016;2023-12-20T07:11:09;99714.94;;;-3.25;100.00
64683;BME280;51107;47.652;19.016;2023-12-20T07:13:38;99705.41;;;-3.21;100.00
64683;BME280;51107;47.652;19.016;2023-12-20T07:16:06;99718.13;;;-3.19;100.00
64683;BME280;51107;47.652;19.016;2023-12-20T07:18:34;99720.38;;;-3.13;100.00
64683;BME280;51107;47.652;19.016;2023-12-20T07:21:03;99710.41;;;-3.18;100.00
64683;BME280;51107;47.652;19.016;2023-12-20T07:23:31;99711.72;;;-3.09;100.00
64683;BME280;51107;47.652;19.016;2023-12-20T07:25:59;99711.34;;;-3.20;100.00
64683;BME280;51107;47.652;19.016;2023-12-20T07:28:28;99707.59;;;-3.12;100.00
64683;BME280;51107;47.652;19.016;2023-12-20T07:30:56;99712.31;;;-3.23;100.00
64683;BME280;51107;47.652;19.016;2023-12-20T07:33:24;99713.03;;;-3.40;100.00
64683;BME280;51107;47.652;19.016;2023-12-20T07:35:52;99714.53;;;-3.15;100.00
64683;BME280;51107;47.652;19.016;2023-12-20T07:38:21;99717.47;;;-3.25;100.00
64683;BME280;51107;47.652;19.016;2023-12-20T07:40:49;99712.63;;;-3.31;100.00
64683;BME280;51107;47.652;19.016;2023-12-20T07:43:17;99717.03;;;-3.14;100.00
64683;BME280;51107;47.652;19.016;2023-12-20T07:45:46;99720.31;;;-3.12;100.00
64683;BME280;51107;47.652;19.016;2023-12-20T07:48:14;99715.44;;;-3.16;100.00
64683;BME280;51107;47.652;19.016;2023-12-20T07:50:42;99693.44;;;-3.19;100.00
64683;BME280;51107;47.652;19.016;2023-12-20T07:53:10;99701.31;;;-3.23;100.00
64683;BME280;51107;47.652;19.016;2023-12-20T07:55:39;99708.75;;;-3.19;100.00
64683;BME280;51107;47.652;19.016;2023-12-20T07:58:07;99703.94;;;-3.27;100.00
64683;BME280;51107;47.652;19.016;2023-12-20T08:00:35;99700.28;;;-3.19;100.00
64683;BME280;51107;47.652;19.016;2023-12-20T08:03:03;99706.41;;;-3.23;100.00
64683;BME280;51107;47.652;19.016;2023-12-20T08:05:31;99705.47;;;-3.22;100.00
64683;BME280;51107;47.652;19.016;2023-12-20T08:08:00;99686.00;;;-3.23;100.00
64683;BME280;51107;47.652;19.016;2023-12-20T08:10:28;99689.63;;;-3.29;100.00
64683;BME280;51107;47.652;19.016;2023-12-20T08:12:58;99687.97;;;-3.10;100.00
64683;BME280;51107;47.652;19.016;2023-12-20T08:15:26;99693.59;;;-3.22;100.00
64683;BME280;51107;47.652;19.016;2023-12-20T08:17:54;99682.97;;;-3.13;100.00
64683;BME280;51107;47.652;19.016;2023-12-20T08:20:22;99681.06;;;-3.08;100.00
64683;BME280;51107;47.652;19.016;2023-12-20T08:23:04;99687.22;;;-2.93;100.00
64683;BME280;51107;47.652;19.016;2023-12-20T08:25:32;99702.59;;;-2.94;100.00
64683;BME280;51107;47.652;19.016;2023-12-20T08:28:02;99696.00;;;-2.79;100.00
64683;BME280;51107;47.652;19.016;2023-12-20T08:30:30;99694.81;;;-2.91;100.00
64683;BME280;51107;47.652;19.016;2023-12-20T08:33:02;99681.91;;;-2.88;100.00
64683;BME280;51107;47.652;19.016;2023-12-20T08:35:31;99695.53;;;-3.08;100.00
64683;BME280;51107;47.652;19.016;2023-12-20T08:37:59;99687.19;;;-3.12;100.00
64683;BME280;51107;47.652;19.016;2023-12-20T08:40:27;99694.16;;;-2.96;100.00
64683;BME280;51107;47.652;19.016;2023-12-20T08:42:56;99695.59;;;-2.89;100.00
64683;BME280;51107;47.652;19.016;2023-12-20T08:45:24;99694.34;;;-2.80;100.00
64683;BME280;51107;47.652;19.016;2023-12-20T08:47:52;99688.50;;;-2.82;100.00
64683;BME280;51107;47.652;19.016;2023-12-20T08:50:21;99703.97;;;-2.87;100.00
64683;BME280;51107;47.652;19.016;2023-12-20T08:52:49;99698.56;;;-2.79;100.00
64683;BME280;51107;47.652;19.016;2023-12-20T08:55:17;99708.62;;;-2.76;100.00
64683;BME280;51107;47.652;19.016;2023-12-20T08:57:46;99700.16;;;-2.77;100.00
64683;BME280;51107;47.652;19.016;2023-12-20T09:00:15;99707.50;;;-2.70;100.00
64683;BME280;51107;47.652;19.016;2023-12-20T09:02:44;99699.59;;;-2.64;100.00
64683;BME280;51107;47.652;19.016;2023-12-20T09:05:12;99700.97;;;-2.57;100.00
64683;BME280;51107;47.652;19.016;2023-12-20T09:07:40;99699.22;;;-2.76;100.00
64683;BME280;51107;47.652;19.016;2023-12-20T09:10:08;99699.13;;;-2.72;100.00
64683;BME280;51107;47.652;19.016;2023-12-20T09:12:37;99693.47;;;-2.60;100.00
64683;BME280;51107;47.652;19.016;2023-12-20T09:15:08;99700.97;;;-2.57;100.00
64683;BME280;51107;47.652;19.016;2023-12-20T09:17:36;99690.16;;;-2.62;100.00
64683;BME280;51107;47.652;19.016;2023-12-20T09:20:04;99686.56;;;-2.58;100.00
64683;BME280;51107;47.652;19.016;2023-12-20T09:22:35;99700.62;;;-2.49;100.00
64683;BME280;51107;47.652;19.016;2023-12-20T09:25:04;99688.22;;;-2.38;100.00
64683;BME280;51107;47.652;19.016;2023-12-20T09:27:32;99683.25;;;-2.41;100.00
64683;BME280;51107;47.652;19.016;2023-12-20T09:30:01;99675.88;;;-2.47;100.00
64683;BME280;51107;47.652;19.016;2023-12-20T09:32:29;99675.53;;;-2.40;100.00
64683;BME280;51107;47.652;19.016;2023-12-20T09:34:58;99663.25;;;-2.31;100.00
64683;BME280;51107;47.652;19.016;2023-12-20T09:37:26;99673.59;;;-2.34;100.00
64683;BME280;51107;47.652;19.016;2023-12-20T09:39:55;99663.69;;;-2.41;100.00
64683;BME280;51107;47.652;19.016;2023-12-20T09:45:03;99636.91;;;-2.51;100.00
64683;BME280;51107;47.652;19.016;2023-12-20T09:47:36;99643.13;;;-2.37;100.00
64683;BME280;51107;47.652;19.016;2023-12-20T09:50:05;99654.19;;;-2.56;100.00
64683;BME280;51107;47.652;19.016;2023-12-20T09:52:36;99637.53;;;-2.46;100.00
64683;BME280;51107;47.652;19.016;2023-12-20T09:55:05;99628.37;;;-2.50;100.00
64683;BME280;51107;47.652;19.016;2023-12-20T09:57:35;99638.25;;;-2.42;100.00
64683;BME280;51107;47.652;19.016;2023-12-20T10:00:03;99634.81;;;-2.24;100.00
64683;BME280;51107;47.652;19.016;2023-12-20T10:02:44;99617.41;;;-2.15;100.00
64683;BME280;51107;47.652;19.016;2023-12-20T10:05:17;99620.00;;;-1.98;100.00
64683;BME280;51107;47.652;19.016;2023-12-20T10:07:48;99626.41;;;-2.08;100.00
64683;BME280;51107;47.652;19.016;2023-12-20T10:10:17;99620.72;;;-1.96;100.00
64683;BME280;51107;47.652;19.016;2023-12-20T10:13:06;99600.91;;;-1.91;100.00
64683;BME280;51107;47.652;19.016;2023-12-20T10:15:36;99601.59;;;-1.87;100.00
64683;BME280;51107;47.652;19.016;2023-12-20T10:18:05;99602.16;;;-1.82;100.00
64683;BME280;51107;47.652;19.016;2023-12-20T10:20:33;99605.63;;;-2.00;100.00
64683;BME280;51107;47.652;19.016;2023-12-20T10:23:02;99597.28;;;-2.04;100.00
64683;BME280;51107;47.652;19.016;2023-12-20T10:25:30;99593.62;;;-1.81;100.00
64683;BME280;51107;47.652;19.016;2023-12-20T10:28:16;99585.38;;;-2.03;100.00
64683;BME280;51107;47.652;19.016;2023-12-20T10:30:49;99562.84;;;-1.95;100.00
64683;BME280;51107;47.652;19.016;2023-12-20T10:33:28;99574.47;;;-1.90;100.00
64683;BME280;51107;47.652;19.016;2023-12-20T10:35:57;99568.16;;;-1.82;100.00
64683;BME280;51107;47.652;19.016;2023-12-20T10:38:25;99552.91;;;-1.84;100.00
64683;BME280;51107;47.652;19.016;2023-12-20T10:40:56;99558.19;;;-1.87;100.00
64683;BME280;51107;47.652;19.016;2023-12-20T10:43:26;99549.06;;;-1.75;100.00
64683;BME280;51107;47.652;19.016;2023-12-20T10:45:57;99544.50;;;-1.86;100.00
64683;BME280;51107;47.652;19.016;2023-12-20T10:48:26;99528.31;;;-2.02;100.00
64683;BME280;51107;47.652;19.016;2023-12-20T10:50:58;99531.06;;;-1.72;100.00
64683;BME280;51107;47.652;19.016;2023-12-20T10:53:27;99529.31;;;-1.72;100.00
64683;BME280;51107;47.652;19.016;2023-12-20T10:55:55;99531.62;;;-1.67;100.00
64683;BME280;51107;47.652;19.016;2023-12-20T10:58:28;99546.59;;;-1.77;100.00
64683;BME280;51107;47.652;19.016;2023-12-20T11:01:00;99523.59;;;-1.77;100.00
64683;BME280;51107;47.652;19.016;2023-12-20T11:03:35;99522.47;;;-1.71;100.00
64683;BME280;51107;47.652;19.016;2023-12-20T11:06:36;99508.56;;;-1.65;100.00
64683;BME280;51107;47.652;19.016;2023-12-20T11:09:26;99514.09;;;-1.57;100.00
64683;BME280;51107;47.652;19.016;2023-12-20T11:14:52;99492.34;;;-1.64;100.00
64683;BME280;51107;47.652;19.016;2023-12-20T11:17:21;99479.41;;;-1.61;100.00
64683;BME280;51107;47.652;19.016;2023-12-20T11:22:20;99484.69;;;-1.32;100.00
64683;BME280;51107;47.652;19.016;2023-12-20T11:24:50;99479.34;;;-1.44;100.00
64683;BME280;51107;47.652;19.016;2023-12-20T11:27:19;99483.22;;;-1.37;100.00
64683;BME280;51107;47.652;19.016;2023-12-20T11:29:52;99484.22;;;-1.23;100.00
64683;BME280;51107;47.652;19.016;2023-12-20T11:37:38;99474.06;;;-0.93;100.00
64683;BME280;51107;47.652;19.016;2023-12-20T11:40:07;99477.28;;;-0.89;100.00
64683;BME280;51107;47.652;19.016;2023-12-20T11:42:38;99491.19;;;-0.79;100.00
64683;BME280;51107;47.652;19.016;2023-12-20T11:45:11;99473.13;;;-0.76;100.00
64683;BME280;51107;47.652;19.016;2023-12-20T11:47:45;99460.97;;;-0.72;100.00
64683;BME280;51107;47.652;19.016;2023-12-20T11:50:15;99474.25;;;-0.35;100.00
64683;BME280;51107;47.652;19.016;2023-12-20T11:52:44;99441.00;;;-0.51;100.00
64683;BME280;51107;47.652;19.016;2023-12-20T11:55:12;99474.34;;;-0.37;100.00
64683;BME280;51107;47.652;19.016;2023-12-20T11:57:41;99460.28;;;-0.15;100.00
64683;BME280;51107;47.652;19.016;2023-12-20T12:00:10;99454.88;;;0.04;100.00
64683;BME280;51107;47.652;19.016;2023-12-20T12:02:38;99455.97;;;0.43;100.00
64683;BME280;51107;47.652;19.016;2023-12-20T12:05:07;99444.06;;;0.57;100.00
64683;BME280;51107;47.652;19.016;2023-12-20T12:07:36;99442.09;;;0.75;100.00
64683;BME280;51107;47.652;19.016;2023-12-20T12:10:04;99433.81;;;1.11;100.00
64683;BME280;51107;47.652;19.016;2023-12-20T12:12:33;99426.06;;;0.86;100.00
64683;BME280;51107;47.652;19.016;2023-12-20T12:15:01;99415.63;;;1.67;100.00
64683;BME280;51107;47.652;19.016;2023-12-20T12:17:30;99427.44;;;2.83;100.00
64683;BME280;51107;47.652;19.016;2023-12-20T12:20:04;99431.91;;;2.68;100.00
64683;BME280;51107;47.652;19.016;2023-12-20T12:22:33;99421.78;;;1.91;100.00
64683;BME280;51107;47.652;19.016;2023-12-20T12:25:12;99421.28;;;1.73;100.00
64683;BME280;51107;47.652;19.016;2023-12-20T12:27:42;99425.25;;;2.02;100.00
64683;BME280;51107;47.652;19.016;2023-12-20T12:30:11;99434.19;;;3.32;100.00
64683;BME280;51107;47.652;19.016;2023-12-20T12:32:41;99418.91;;;3.53;100.00
64683;BME280;51107;47.652;19.016;2023-12-20T12:35:10;99418.66;;;3.56;100.00
64683;BME280;51107;47.652;19.016;2023-12-20T12:37:39;99430.91;;;3.88;100.00
64683;BME280;51107;47.652;19.016;2023-12-20T12:40:12;99413.69;;;3.89;100.00
64683;BME280;51107;47.652;19.016;2023-12-20T12:42:43;99427.25;;;3.91;100.00
64683;BME280;51107;47.652;19.016;2023-12-20T12:45:11;99435.81;;;3.91;100.00
64683;BME280;51107;47.652;19.016;2023-12-20T12:47:40;99433.12;;;3.82;100.00
64683;BME280;51107;47.652;19.016;2023-12-20T12:50:08;99427.63;;;3.86;100.00
64683;BME280;51107;47.652;19.016;2023-12-20T12:52:37;99414.63;;;4.11;100.00
64683;BME280;51107;47.652;19.016;2023-12-20T12:55:06;99421.63;;;4.20;100.00
64683;BME280;51107;47.652;19.016;2023-12-20T12:57:34;99416.25;;;4.34;100.00
64683;BME280;51107;47.652;19.016;2023-12-20T13:00:03;99422.13;;;4.14;100.00
64683;BME280;51107;47.652;19.016;2023-12-20T13:02:31;99423.75;;;4.26;100.00
64683;BME280;51107;47.652;19.016;2023-12-20T13:04:59;99414.63;;;4.22;100.00